Time;durP1;ratioP1;P1;durP2;ratioP2;P2;SDS_P1;SDS_P2;PMS_P1;PMS_P2;Temp;Humidity;BMP_temperature;BMP_pressure;BME280_temperature;BME280_humidity;BME280_pressure;Samples;Min_cycle;Max_cycle;Signal;HPM_P1;HPM_P2
2024/01/24 00:01:46;;;;;;;49.87;47.17;;;;;;;;;;5080410;28;20454;-83
2024/01/24 00:04:14;;;;;;;56.17;52.93;;;;;;;;;;5060254;28;20498;-82
2024/01/24 00:06:41;;;;;;;59.63;55.97;;;;;;;;;;5059789;28;20453;-82
2024/01/24 00:09:08;;;;;;;56.83;54.03;;;;;;;;;;5060596;28;21076;-83
2024/01/24 00:11:35;;;;;;;54.40;51.50;;;;;;;;;;5060960;28;20495;-82
2024/01/24 00:14:03;;;;;;;58.90;55.80;;;;;;;;;;5061404;28;20409;-84
2024/01/24 00:16:31;;;;;;;63.17;59.30;;;;;;;;;;5077548;28;20466;-82
2024/01/24 00:18:58;;;;;;;58.00;54.70;;;;;;;;;;5080320;28;20482;-83
2024/01/24 00:21:25;;;;;;;58.60;55.30;;;;;;;;;;5081540;28;20904;-82
2024/01/24 00:23:52;;;;;;;57.50;54.23;;;;;;;;;;5080861;28;20416;-83
2024/01/24 00:26:19;;;;;;;56.53;53.30;;;;;;;;;;5080396;28;21228;-83
2024/01/24 00:28:46;;;;;;;56.53;53.40;;;;;;;;;;5080810;28;20523;-82
2024/01/24 00:31:13;;;;;;;58.23;54.83;;;;;;;;;;5072708;28;20459;-83
2024/01/24 00:33:41;;;;;;;55.53;51.97;;;;;;;;;;5079713;28;20453;-82
2024/01/24 00:36:09;;;;;;;59.30;55.93;;;;;;;;;;5080741;28;20487;-83
2024/01/24 00:38:35;;;;;;;61.83;58.17;;;;;;;;;;5072366;28;20447;-83
2024/01/24 00:41:02;;;;;;;57.77;54.43;;;;;;;;;;5080960;28;20450;-84
2024/01/24 00:43:29;;;;;;;57.53;54.30;;;;;;;;;;5071507;28;20830;-83
2024/01/24 00:45:56;;;;;;;57.10;53.70;;;;;;;;;;5064972;28;20456;-83
2024/01/24 00:48:23;;;;;;;54.90;51.50;;;;;;;;;;5080913;28;20536;-84
2024/01/24 00:50:53;;;;;;;55.43;52.13;;;;;;;;;;5068008;28;20475;-82
2024/01/24 00:53:21;;;;;;;58.33;54.80;;;;;;;;;;5062698;28;20866;-83
2024/01/24 00:55:48;;;;;;;55.67;52.10;;;;;;;;;;5061505;28;20447;-82
2024/01/24 00:58:15;;;;;;;53.13;50.17;;;;;;;;;;5060555;28;20443;-83
2024/01/24 01:00:42;;;;;;;54.23;51.13;;;;;;;;;;5060536;28;20806;-83
2024/01/24 01:03:09;;;;;;;50.47;47.33;;;;;;;;;;5061074;28;20451;-83
2024/01/24 01:05:37;;;;;;;52.67;49.73;;;;;;;;;;5059451;28;21614;-82
2024/01/24 01:08:06;;;;;;;54.30;51.00;;;;;;;;;;5059996;28;20429;-82
2024/01/24 01:10:33;;;;;;;47.13;44.53;;;;;;;;;;5060347;28;20475;-83
2024/01/24 01:13:00;;;;;;;48.80;45.80;;;;;;;;;;5077552;28;20543;-82
2024/01/24 01:15:27;;;;;;;52.33;48.10;;;;;;;;;;5080271;28;20476;-82
2024/01/24 01:17:54;;;;;;;51.83;48.53;;;;;;;;;;5063421;28;20827;-82
2024/01/24 01:20:21;;;;;;;53.07;49.57;;;;;;;;;;5062418;28;20458;-82
2024/01/24 01:22:48;;;;;;;49.57;46.43;;;;;;;;;;5076343;28;20471;-82
2024/01/24 01:25:16;;;;;;;52.47;49.30;;;;;;;;;;5075292;28;20459;-83
2024/01/24 01:27:44;;;;;;;52.60;49.43;;;;;;;;;;5080322;28;20432;-82
2024/01/24 01:30:11;;;;;;;49.90;47.10;;;;;;;;;;5079430;28;21298;-82
2024/01/24 01:32:38;;;;;;;51.07;48.03;;;;;;;;;;5079880;28;20441;-82
2024/01/24 01:35:06;;;;;;;52.30;48.80;;;;;;;;;;5080263;28;20404;-82
2024/01/24 01:37:33;;;;;;;49.90;46.90;;;;;;;;;;5078551;28;20488;-81
2024/01/24 01:40:00;;;;;;;50.73;47.80;;;;;;;;;;5078874;28;20470;-82
2024/01/24 01:42:28;;;;;;;50.20;47.17;;;;;;;;;;5076568;28;20458;-83
2024/01/24 01:44:55;;;;;;;48.17;45.47;;;;;;;;;;5076540;28;20481;-83
2024/01/24 01:47:22;;;;;;;46.33;43.73;;;;;;;;;;5064746;28;20504;-83
2024/01/24 01:49:49;;;;;;;45.60;42.90;;;;;;;;;;5058139;28;20470;-81
2024/01/24 01:52:17;;;;;;;49.40;46.27;;;;;;;;;;5077538;28;20453;-80
2024/01/24 01:54:44;;;;;;;48.60;46.00;;;;;;;;;;5079393;28;20433;-82
2024/01/24 01:57:11;;;;;;;48.93;46.33;;;;;;;;;;5079140;28;20907;-82
2024/01/24 01:59:41;;;;;;;49.87;46.87;;;;;;;;;;5066617;28;20467;-83
2024/01/24 02:02:08;;;;;;;50.93;47.90;;;;;;;;;;5058969;28;20492;-82
2024/01/24 02:04:35;;;;;;;49.27;46.03;;;;;;;;;;5058784;28;20462;-82
2024/01/24 02:07:02;;;;;;;47.40;44.80;;;;;;;;;;5058998;28;20460;-82
2024/01/24 02:09:29;;;;;;;42.73;40.43;;;;;;;;;;5058818;28;20463;-83
2024/01/24 02:11:56;;;;;;;43.67;40.93;;;;;;;;;;5061089;28;20504;-82
2024/01/24 02:14:23;;;;;;;46.37;43.37;;;;;;;;;;5063366;28;20443;-82
2024/01/24 02:16:51;;;;;;;42.43;40.17;;;;;;;;;;5062317;28;20855;-82
2024/01/24 02:19:18;;;;;;;44.13;41.60;;;;;;;;;;5063140;28;20433;-83
2024/01/24 02:21:46;;;;;;;42.73;40.33;;;;;;;;;;5063018;28;20421;-82
2024/01/24 02:24:14;;;;;;;42.77;40.57;;;;;;;;;;5063242;28;20439;-83
2024/01/24 02:26:42;;;;;;;42.10;39.60;;;;;;;;;;5062195;28;20456;-83
2024/01/24 02:29:11;;;;;;;42.23;39.50;;;;;;;;;;5063772;28;20863;-83
2024/01/24 02:31:38;;;;;;;48.03;45.50;;;;;;;;;;5063299;28;20465;-83
2024/01/24 02:34:05;;;;;;;47.03;44.37;;;;;;;;;;5066286;28;20452;-83
2024/01/24 02:36:32;;;;;;;46.57;44.03;;;;;;;;;;5083201;28;20429;-81
2024/01/24 02:38:59;;;;;;;49.63;46.43;;;;;;;;;;5071915;28;20463;-83
2024/01/24 02:41:27;;;;;;;48.37;45.37;;;;;;;;;;5062867;28;20443;-83
2024/01/24 02:43:54;;;;;;;44.87;42.57;;;;;;;;;;5063063;28;20431;-83
2024/01/24 02:46:21;;;;;;;50.50;47.70;;;;;;;;;;5061974;28;20479;-83
2024/01/24 02:48:48;;;;;;;48.23;45.83;;;;;;;;;;5062641;28;20448;-82
2024/01/24 02:51:24;;;;;;;47.43;44.60;;;;;;;;;;5062830;28;20805;-83
2024/01/24 02:53:51;;;;;;;49.97;47.37;;;;;;;;;;5063044;28;20454;-83
2024/01/24 02:56:18;;;;;;;49.40;46.70;;;;;;;;;;5062288;28;20462;-81
2024/01/24 02:58:47;;;;;;;50.60;47.90;;;;;;;;;;5062948;28;20475;-82
2024/01/24 03:01:15;;;;;;;46.60;43.67;;;;;;;;;;5061888;28;20425;-81
2024/01/24 03:03:43;;;;;;;48.90;46.13;;;;;;;;;;5061899;28;20933;-82
2024/01/24 03:06:10;;;;;;;47.93;44.93;;;;;;;;;;5061046;28;20482;-83
2024/01/24 03:08:47;;;;;;;49.23;46.53;;;;;;;;;;5061870;28;20491;-83
2024/01/24 03:11:14;;;;;;;48.17;45.57;;;;;;;;;;5063249;28;20433;-83
2024/01/24 03:13:41;;;;;;;51.47;48.67;;;;;;;;;;5066966;28;20459;-83
2024/01/24 03:16:10;;;;;;;50.23;47.60;;;;;;;;;;5061149;28;20838;-82
2024/01/24 03:18:37;;;;;;;49.37;46.77;;;;;;;;;;5061139;28;20406;-83
2024/01/24 03:21:05;;;;;;;46.07;43.47;;;;;;;;;;5062446;28;20425;-82
2024/01/24 03:23:32;;;;;;;47.37;44.97;;;;;;;;;;5061768;28;20924;-83
2024/01/24 03:25:59;;;;;;;44.13;41.90;;;;;;;;;;5061203;28;20533;-82
2024/01/24 03:28:26;;;;;;;42.17;40.07;;;;;;;;;;5064439;28;20491;-81
2024/01/24 03:30:53;;;;;;;42.37;39.30;;;;;;;;;;5080826;28;20450;-82
2024/01/24 03:33:22;;;;;;;38.60;36.57;;;;;;;;;;5081176;28;20919;-82
2024/01/24 03:35:49;;;;;;;41.30;39.07;;;;;;;;;;5081462;28;20603;-82
2024/01/24 03:38:16;;;;;;;38.23;36.23;;;;;;;;;;5080550;28;20520;-82
2024/01/24 03:40:43;;;;;;;39.50;37.60;;;;;;;;;;5080652;28;20485;-82
2024/01/24 03:43:10;;;;;;;38.63;36.73;;;;;;;;;;5069031;28;20497;-83
2024/01/24 03:45:37;;;;;;;39.13;37.23;;;;;;;;;;5060355;28;20488;-81
2024/01/24 03:48:05;;;;;;;37.63;35.83;;;;;;;;;;5060630;28;20518;-81
2024/01/24 03:50:34;;;;;;;39.73;37.83;;;;;;;;;;5061097;28;20471;-82
2024/01/24 03:53:01;;;;;;;38.43;36.63;;;;;;;;;;5060227;28;20451;-81
2024/01/24 03:55:28;;;;;;;36.50;34.80;;;;;;;;;;5060214;28;20445;-81
2024/01/24 03:57:56;;;;;;;36.50;34.60;;;;;;;;;;5060208;28;20455;-82
2024/01/24 04:00:23;;;;;;;40.93;38.67;;;;;;;;;;5060008;28;20445;-81
2024/01/24 04:02:50;;;;;;;37.73;35.93;;;;;;;;;;5060765;28;20439;-82
2024/01/24 04:05:17;;;;;;;38.03;36.03;;;;;;;;;;5060642;28;20565;-81
2024/01/24 04:07:45;;;;;;;37.83;35.93;;;;;;;;;;5060658;28;20414;-82
2024/01/24 04:10:12;;;;;;;40.37;38.27;;;;;;;;;;5060100;28;20444;-82
2024/01/24 04:12:39;;;;;;;42.30;40.30;;;;;;;;;;5060705;28;20413;-82
2024/01/24 04:15:07;;;;;;;39.23;37.33;;;;;;;;;;5060270;28;20455;-82
2024/01/24 04:17:34;;;;;;;41.97;39.77;;;;;;;;;;5059396;28;20532;-82
2024/01/24 04:20:01;;;;;;;40.10;38.10;;;;;;;;;;5060795;28;20858;-82
2024/01/24 04:22:28;;;;;;;42.60;40.57;;;;;;;;;;5060005;28;20429;-81
2024/01/24 04:24:56;;;;;;;40.13;38.13;;;;;;;;;;5060146;28;20796;-83
2024/01/24 04:27:24;;;;;;;38.70;36.80;;;;;;;;;;5060112;28;20600;-82
2024/01/24 04:29:51;;;;;;;36.63;34.73;;;;;;;;;;5060468;28;20470;-82
2024/01/24 04:32:18;;;;;;;42.83;40.43;;;;;;;;;;5063734;28;20451;-82
2024/01/24 04:34:45;;;;;;;45.07;42.87;;;;;;;;;;5079435;28;20464;-81
2024/01/24 04:37:12;;;;;;;45.90;43.60;;;;;;;;;;5079674;28;20888;-83
2024/01/24 04:39:39;;;;;;;37.30;35.47;;;;;;;;;;5080043;28;20871;-82
2024/01/24 04:42:07;;;;;;;33.50;31.90;;;;;;;;;;5078981;28;20535;-82
2024/01/24 04:44:34;;;;;;;31.77;30.37;;;;;;;;;;5079487;28;20442;-82
2024/01/24 04:47:01;;;;;;;31.50;30.00;;;;;;;;;;5079135;28;20531;-82
2024/01/24 04:49:28;;;;;;;32.20;30.60;;;;;;;;;;5079254;28;20487;-81
2024/01/24 04:51:56;;;;;;;31.90;30.43;;;;;;;;;;5079483;28;20480;-82
2024/01/24 04:54:23;;;;;;;30.90;29.40;;;;;;;;;;5079404;28;20449;-81
2024/01/24 04:56:50;;;;;;;37.87;35.37;;;;;;;;;;5078327;28;20430;-81
2024/01/24 04:59:18;;;;;;;37.47;35.23;;;;;;;;;;5079089;28;20480;-82
2024/01/24 05:01:45;;;;;;;40.07;37.47;;;;;;;;;;5078689;28;20424;-82
2024/01/24 05:04:12;;;;;;;34.83;33.03;;;;;;;;;;5078668;28;20416;-82
2024/01/24 05:06:40;;;;;;;34.63;32.67;;;;;;;;;;5076062;28;20484;-82
2024/01/24 05:09:07;;;;;;;33.67;31.87;;;;;;;;;;5058833;28;20486;-82
2024/01/24 05:11:34;;;;;;;49.37;45.17;;;;;;;;;;5059776;28;21056;-82
2024/01/24 05:14:01;;;;;;;32.70;31.20;;;;;;;;;;5078686;28;20401;-82
2024/01/24 05:16:30;;;;;;;31.73;30.33;;;;;;;;;;5073986;28;20455;-81
2024/01/24 05:18:57;;;;;;;32.20;30.70;;;;;;;;;;5058319;28;20467;-82
2024/01/24 05:21:24;;;;;;;32.37;30.90;;;;;;;;;;5058536;28;20524;-82
2024/01/24 05:23:52;;;;;;;33.83;32.23;;;;;;;;;;5059397;28;20538;-82
2024/01/24 05:26:19;;;;;;;43.80;41.60;;;;;;;;;;5058909;28;20502;-83
2024/01/24 05:28:46;;;;;;;70.03;66.30;;;;;;;;;;5059713;28;20505;-83
2024/01/24 05:31:13;;;;;;;25.30;23.70;;;;;;;;;;5059395;28;20439;-85
2024/01/24 05:33:42;;;;;;;26.20;24.50;;;;;;;;;;5061023;28;20512;-83
2024/01/24 05:36:09;;;;;;;26.40;24.90;;;;;;;;;;5060274;28;20508;-83
2024/01/24 05:38:36;;;;;;;26.00;24.50;;;;;;;;;;5079328;28;20454;-84
2024/01/24 05:41:03;;;;;;;25.20;23.80;;;;;;;;;;5067810;28;20454;-84
2024/01/24 05:43:30;;;;;;;26.27;24.67;;;;;;;;;;5069275;28;20453;-82
2024/01/24 05:45:57;;;;;;;25.13;23.53;;;;;;;;;;5062356;28;20922;-84
2024/01/24 05:48:24;;;;;;;25.93;24.33;;;;;;;;;;5063964;28;20485;-82
2024/01/24 05:50:53;;;;;;;25.60;24.20;;;;;;;;;;5062794;28;20450;-82
2024/01/24 05:53:20;;;;;;;26.23;24.40;;;;;;;;;;5063842;28;20525;-82
2024/01/24 05:55:47;;;;;;;23.70;22.33;;;;;;;;;;5080865;28;20448;-83
2024/01/24 05:58:14;;;;;;;28.00;26.30;;;;;;;;;;5082454;28;20507;-81
2024/01/24 06:00:41;;;;;;;23.47;22.03;;;;;;;;;;5083096;28;20877;-83
2024/01/24 06:03:08;;;;;;;23.03;21.40;;;;;;;;;;5083028;28;20488;-82
2024/01/24 06:05:35;;;;;;;24.50;22.87;;;;;;;;;;5082659;28;20537;-82
2024/01/24 06:08:05;;;;;;;24.70;23.20;;;;;;;;;;5082259;28;20500;-82
2024/01/24 06:10:32;;;;;;;23.00;21.60;;;;;;;;;;5082786;28;20474;-82
2024/01/24 06:12:59;;;;;;;25.13;23.53;;;;;;;;;;5082890;28;20450;-82
2024/01/24 06:15:27;;;;;;;23.17;21.77;;;;;;;;;;5082600;28;20457;-83
2024/01/24 06:17:54;;;;;;;24.53;22.67;;;;;;;;;;5082010;28;20952;-82
2024/01/24 06:20:21;;;;;;;24.50;23.00;;;;;;;;;;5081958;28;20457;-82
2024/01/24 06:22:48;;;;;;;25.47;23.30;;;;;;;;;;5082430;28;20571;-82
2024/01/24 06:25:17;;;;;;;25.70;23.73;;;;;;;;;;5081217;28;20582;-81
2024/01/24 06:27:45;;;;;;;29.33;25.90;;;;;;;;;;5081508;28;20477;-81
2024/01/24 06:30:12;;;;;;;27.57;25.03;;;;;;;;;;5081866;28;20474;-82
2024/01/24 06:32:40;;;;;;;29.33;26.90;;;;;;;;;;5066460;28;20520;-82
2024/01/24 06:35:07;;;;;;;30.97;28.50;;;;;;;;;;5074658;28;20839;-82
2024/01/24 06:37:34;;;;;;;32.37;29.60;;;;;;;;;;5081495;28;20869;-81
2024/01/24 06:40:03;;;;;;;35.30;32.73;;;;;;;;;;5082038;28;20462;-82
2024/01/24 06:42:31;;;;;;;38.30;35.40;;;;;;;;;;5081977;28;20500;-83
2024/01/24 06:44:58;;;;;;;43.37;40.20;;;;;;;;;;5081887;28;20430;-83
2024/01/24 06:47:25;;;;;;;43.70;40.83;;;;;;;;;;5081983;28;20567;-82
2024/01/24 06:49:52;;;;;;;49.20;45.17;;;;;;;;;;5080276;28;20458;-82
2024/01/24 06:52:19;;;;;;;58.07;54.10;;;;;;;;;;5061024;28;21000;-83
2024/01/24 06:54:46;;;;;;;57.90;53.63;;;;;;;;;;5061824;28;20454;-81
2024/01/24 06:57:13;;;;;;;54.77;51.47;;;;;;;;;;5060167;28;20467;-82
2024/01/24 06:59:41;;;;;;;41.77;38.20;;;;;;;;;;5061198;28;20466;-82
2024/01/24 07:02:08;;;;;;;37.63;34.83;;;;;;;;;;5060054;28;20555;-81
2024/01/24 07:04:35;;;;;;;36.17;33.57;;;;;;;;;;5060560;28;20976;-80
2024/01/24 07:07:02;;;;;;;37.53;34.37;;;;;;;;;;5060065;28;20457;-81
2024/01/24 07:09:29;;;;;;;34.90;32.20;;;;;;;;;;5061591;28;20475;-82
2024/01/24 07:11:56;;;;;;;36.73;34.33;;;;;;;;;;5066298;28;20457;-81
2024/01/24 07:14:24;;;;;;;36.63;33.83;;;;;;;;;;5080675;28;20447;-81
2024/01/24 07:16:52;;;;;;;37.73;35.23;;;;;;;;;;5075231;28;20459;-81
2024/01/24 07:19:19;;;;;;;37.83;34.70;;;;;;;;;;5060927;28;20528;-82
2024/01/24 07:21:47;;;;;;;38.17;34.87;;;;;;;;;;5059908;28;20479;-81
2024/01/24 07:24:14;;;;;;;38.00;35.67;;;;;;;;;;5063648;28;20429;-83
2024/01/24 07:26:41;;;;;;;49.83;46.50;;;;;;;;;;5061220;28;21020;-82
2024/01/24 07:29:10;;;;;;;59.07;54.27;;;;;;;;;;5061749;28;20554;-81
2024/01/24 07:31:37;;;;;;;55.17;51.80;;;;;;;;;;5056850;28;20459;-79
2024/01/24 07:34:06;;;;;;;62.60;57.77;;;;;;;;;;5056097;28;20435;-80
2024/01/24 07:36:33;;;;;;;58.47;54.00;;;;;;;;;;5056285;28;20468;-79
2024/01/24 07:39:02;;;;;;;61.07;56.10;;;;;;;;;;5056781;28;20470;-80
2024/01/24 07:41:29;;;;;;;60.00;55.47;;;;;;;;;;5056488;28;20446;-80
2024/01/24 07:43:57;;;;;;;52.20;49.07;;;;;;;;;;5057081;28;20861;-81
2024/01/24 07:46:25;;;;;;;48.87;45.70;;;;;;;;;;5055327;28;20458;-80
2024/01/24 07:48:52;;;;;;;45.60;42.20;;;;;;;;;;5056451;28;20441;-79
2024/01/24 07:51:21;;;;;;;50.17;45.70;;;;;;;;;;5056348;28;20549;-80
2024/01/24 07:53:48;;;;;;;40.27;36.83;;;;;;;;;;5060743;28;20485;-80
2024/01/24 07:56:15;;;;;;;39.33;36.37;;;;;;;;;;5070219;28;20534;-81
2024/01/24 07:58:42;;;;;;;38.03;35.50;;;;;;;;;;5070825;28;20830;-81
2024/01/24 08:01:09;;;;;;;36.50;34.07;;;;;;;;;;5055917;28;20451;-80
2024/01/24 08:03:36;;;;;;;33.37;31.17;;;;;;;;;;5054904;28;20512;-81
2024/01/24 08:06:03;;;;;;;35.80;32.67;;;;;;;;;;5055101;28;20461;-82
2024/01/24 08:08:32;;;;;;;35.10;32.30;;;;;;;;;;5054026;28;20465;-80
2024/01/24 08:10:59;;;;;;;36.33;33.67;;;;;;;;;;5061092;28;20501;-81
2024/01/24 08:13:26;;;;;;;34.00;31.67;;;;;;;;;;5068617;28;20424;-81
2024/01/24 08:15:53;;;;;;;36.90;33.60;;;;;;;;;;5075686;28;20450;-81
2024/01/24 08:18:20;;;;;;;33.23;30.97;;;;;;;;;;5066522;28;20508;-80
2024/01/24 08:20:47;;;;;;;32.97;30.70;;;;;;;;;;5056867;28;21207;-81
2024/01/24 08:23:14;;;;;;;31.73;29.80;;;;;;;;;;5056921;28;20417;-81
2024/01/24 08:25:42;;;;;;;31.43;29.30;;;;;;;;;;5056603;28;20454;-81
2024/01/24 08:28:10;;;;;;;31.23;28.23;;;;;;;;;;5073940;28;20781;-81
2024/01/24 08:30:37;;;;;;;31.53;28.77;;;;;;;;;;5076090;28;20499;-80
2024/01/24 08:33:04;;;;;;;30.47;28.30;;;;;;;;;;5068578;28;21572;-81
2024/01/24 08:35:33;;;;;;;40.50;29.40;;;;;;;;;;5057886;28;20490;-80
2024/01/24 08:38:00;;;;;;;31.97;29.40;;;;;;;;;;5056294;28;20489;-81
2024/01/24 08:40:27;;;;;;;34.70;28.50;;;;;;;;;;5055965;28;20498;-81
2024/01/24 08:42:56;;;;;;;26.33;24.30;;;;;;;;;;5055613;28;21004;-81
2024/01/24 08:45:23;;;;;;;28.53;25.77;;;;;;;;;;5056519;28;20450;-81
2024/01/24 08:47:50;;;;;;;27.20;24.83;;;;;;;;;;5055372;28;20505;-78
2024/01/24 08:50:17;;;;;;;26.67;24.30;;;;;;;;;;5055283;28;20483;-81
2024/01/24 08:52:44;;;;;;;26.77;24.27;;;;;;;;;;5058347;28;20447;-81
2024/01/24 08:55:13;;;;;;;24.20;21.87;;;;;;;;;;5058087;28;20476;-81
2024/01/24 08:57:41;;;;;;;25.73;23.70;;;;;;;;;;5059886;28;20466;-79
2024/01/24 09:00:11;;;;;;;22.50;20.73;;;;;;;;;;5061215;28;20494;-80
2024/01/24 09:02:38;;;;;;;24.80;20.73;;;;;;;;;;5061998;28;20482;-80
2024/01/24 09:05:05;;;;;;;24.00;21.97;;;;;;;;;;5060899;28;20439;-80
2024/01/24 09:07:32;;;;;;;23.73;20.43;;;;;;;;;;5059775;28;20532;-80
2024/01/24 09:09:59;;;;;;;21.57;19.70;;;;;;;;;;5060762;28;21146;-80
2024/01/24 09:12:25;;;;;;;21.80;20.33;;;;;;;;;;5061638;28;20451;-80
2024/01/24 09:14:52;;;;;;;23.27;20.90;;;;;;;;;;5057703;28;22527;-81
2024/01/24 09:17:21;;;;;;;23.57;21.23;;;;;;;;;;5061431;28;20489;-80
2024/01/24 09:19:48;;;;;;;23.80;21.07;;;;;;;;;;5061075;28;20563;-80
2024/01/24 09:22:15;;;;;;;26.03;20.93;;;;;;;;;;5081257;28;20431;-80
2024/01/24 09:24:42;;;;;;;24.00;20.10;;;;;;;;;;5081116;28;20444;-80
2024/01/24 09:30:13;;;;;;;22.40;20.40;;;;;;;;;;5063532;28;20429;-80
2024/01/24 09:32:42;;;;;;;28.60;20.10;;;;;;;;;;5073612;28;20445;-79
2024/01/24 09:35:09;;;;;;;21.60;19.30;;;;;;;;;;5080895;28;20446;-84
2024/01/24 09:37:36;;;;;;;36.17;21.17;;;;;;;;;;5080797;28;20471;-83
2024/01/24 09:43:09;;;;;;;24.80;19.70;;;;;;;;;;5062750;28;20409;-84
2024/01/24 09:45:38;;;;;;;23.63;20.30;;;;;;;;;;5068819;28;21219;-84
2024/01/24 09:48:09;;;;;;;23.83;21.17;;;;;;;;;;5067448;28;20483;-84
2024/01/24 09:50:36;;;;;;;24.90;21.67;;;;;;;;;;5075777;28;20469;-84
2024/01/24 09:56:07;;;;;;;22.83;20.60;;;;;;;;;;5058118;28;20398;-83
2024/01/24 09:58:34;;;;;;;24.50;21.20;;;;;;;;;;5060397;28;21082;-82
2024/01/24 10:01:02;;;;;;;21.90;20.00;;;;;;;;;;5059887;28;20494;-80
2024/01/24 10:03:32;;;;;;;22.70;20.50;;;;;;;;;;5056126;28;20413;-80
2024/01/24 10:06:00;;;;;;;22.47;20.47;;;;;;;;;;5057255;28;20439;-81
2024/01/24 10:08:28;;;;;;;22.80;20.40;;;;;;;;;;5056691;28;20512;-80
2024/01/24 10:10:55;;;;;;;25.40;20.27;;;;;;;;;;5056021;28;20458;-80
2024/01/24 10:13:22;;;;;;;26.30;21.03;;;;;;;;;;5055462;28;20927;-80
2024/01/24 10:15:49;;;;;;;27.07;20.27;;;;;;;;;;5055331;28;20931;-80
2024/01/24 10:18:16;;;;;;;26.63;20.80;;;;;;;;;;5055127;28;20455;-80
2024/01/24 10:20:47;;;;;;;35.83;22.73;;;;;;;;;;5055569;28;20532;-80
2024/01/24 10:23:14;;;;;;;22.67;20.50;;;;;;;;;;5056158;28;20429;-81
2024/01/24 10:25:42;;;;;;;23.83;21.87;;;;;;;;;;5055232;28;20433;-81
2024/01/24 10:28:13;;;;;;;24.70;21.80;;;;;;;;;;5054424;28;20884;-79
2024/01/24 10:30:41;;;;;;;26.30;21.70;;;;;;;;;;5055178;28;21024;-79
2024/01/24 10:33:12;;;;;;;27.37;20.40;;;;;;;;;;5061071;28;20528;-85
2024/01/24 10:35:39;;;;;;;28.07;20.77;;;;;;;;;;5074668;28;20415;-78
2024/01/24 10:38:10;;;;;;;25.03;20.67;;;;;;;;;;5072991;28;20824;-76
2024/01/24 10:40:38;;;;;;;20.73;19.10;;;;;;;;;;5056606;28;20557;-77
2024/01/24 10:43:07;;;;;;;24.70;22.30;;;;;;;;;;5052404;28;20450;-78
2024/01/24 10:45:35;;;;;;;21.33;19.47;;;;;;;;;;5055777;28;20902;-78
2024/01/24 10:48:02;;;;;;;21.33;19.83;;;;;;;;;;5052549;28;20550;-76
2024/01/24 10:50:30;;;;;;;25.70;22.03;;;;;;;;;;5058878;28;20478;-77
2024/01/24 10:52:58;;;;;;;22.53;20.37;;;;;;;;;;5058386;28;20524;-78
2024/01/24 10:55:26;;;;;;;21.33;19.50;;;;;;;;;;5052273;28;20450;-79
2024/01/24 10:57:54;;;;;;;21.73;19.93;;;;;;;;;;5052310;28;20443;-77
2024/01/24 11:00:22;;;;;;;22.57;20.40;;;;;;;;;;5052245;28;20797;-78
2024/01/24 11:02:49;;;;;;;27.13;22.50;;;;;;;;;;5052475;28;20458;-76
2024/01/24 11:05:19;;;;;;;28.70;23.40;;;;;;;;;;5052526;28;20493;-77
2024/01/24 11:07:51;;;;;;;27.87;22.10;;;;;;;;;;5051890;28;20536;-77
2024/01/24 11:10:22;;;;;;;28.60;23.87;;;;;;;;;;5052521;28;20481;-77
2024/01/24 11:12:51;;;;;;;25.23;22.00;;;;;;;;;;5056560;28;20478;-83
2024/01/24 11:15:17;;;;;;;25.83;22.57;;;;;;;;;;5062501;28;20999;-81
2024/01/24 11:17:46;;;;;;;23.40;21.40;;;;;;;;;;5058772;28;20453;-81
2024/01/24 11:20:14;;;;;;;22.50;20.43;;;;;;;;;;5058322;28;20478;-75
2024/01/24 11:22:41;;;;;;;24.40;21.87;;;;;;;;;;5061699;28;20433;-83
2024/01/24 11:25:11;;;;;;;22.53;20.67;;;;;;;;;;5062232;28;20430;-82
2024/01/24 11:27:41;;;;;;;25.33;21.90;;;;;;;;;;5059249;28;20477;-83
2024/01/24 11:30:38;;;;;;;24.60;20.70;;;;;;;;;;5070983;28;21012;-83
2024/01/24 11:33:05;;;;;;;38.77;22.73;;;;;;;;;;5060606;28;20478;-82
2024/01/24 11:35:36;;;;;;;25.17;23.27;;;;;;;;;;5061019;28;20785;-83
2024/01/24 11:38:06;;;;;;;27.23;20.47;;;;;;;;;;5063558;28;20456;-82
2024/01/24 11:40:34;;;;;;;28.30;22.00;;;;;;;;;;5060301;28;20467;-83
2024/01/24 11:43:01;;;;;;;22.87;20.60;;;;;;;;;;5059406;28;20471;-81
2024/01/24 11:45:30;;;;;;;26.27;21.20;;;;;;;;;;5060384;28;20446;-82
2024/01/24 11:47:57;;;;;;;26.80;21.80;;;;;;;;;;5057529;28;20486;-80
2024/01/24 11:50:26;;;;;;;24.83;20.43;;;;;;;;;;5055629;28;20453;-81
2024/01/24 11:52:59;;;;;;;27.33;21.10;;;;;;;;;;5070101;28;20442;-78
2024/01/24 11:55:27;;;;;;;23.40;21.03;;;;;;;;;;5065170;28;20459;-81
2024/01/24 11:57:54;;;;;;;21.83;20.13;;;;;;;;;;5057468;28;20457;-79
2024/01/24 12:00:22;;;;;;;24.47;21.43;;;;;;;;;;5052616;28;20492;-78
2024/01/24 12:02:51;;;;;;;23.30;20.87;;;;;;;;;;5053278;28;20544;-77
2024/01/24 12:05:18;;;;;;;23.67;21.17;;;;;;;;;;5051712;28;20442;-78
2024/01/24 12:07:45;;;;;;;25.13;22.87;;;;;;;;;;5050817;28;20457;-80
2024/01/24 12:10:12;;;;;;;25.23;21.20;;;;;;;;;;5051483;28;20475;-78
2024/01/24 12:12:40;;;;;;;27.80;21.40;;;;;;;;;;5051853;28;20425;-78
2024/01/24 12:15:09;;;;;;;22.30;20.40;;;;;;;;;;5051811;28;20483;-77
2024/01/24 12:17:38;;;;;;;22.13;20.63;;;;;;;;;;5050694;28;20459;-77
2024/01/24 12:20:08;;;;;;;24.33;21.60;;;;;;;;;;5050583;28;20453;-79
2024/01/24 12:22:35;;;;;;;23.27;20.80;;;;;;;;;;5051868;28;20459;-78
2024/01/24 12:25:02;;;;;;;21.20;19.67;;;;;;;;;;5053439;28;20499;-76
2024/01/24 12:27:29;;;;;;;24.33;21.90;;;;;;;;;;5050922;28;20425;-78
2024/01/24 12:29:56;;;;;;;27.60;22.10;;;;;;;;;;5050584;28;21080;-77
2024/01/24 12:32:23;;;;;;;26.10;21.20;;;;;;;;;;5051051;28;20446;-75
2024/01/24 12:34:51;;;;;;;23.97;21.50;;;;;;;;;;5051280;28;20505;-77
2024/01/24 12:37:21;;;;;;;22.90;20.70;;;;;;;;;;5050847;28;20458;-76
2024/01/24 12:39:52;;;;;;;21.83;19.90;;;;;;;;;;5050984;28;20791;-77
2024/01/24 12:42:19;;;;;;;25.90;21.53;;;;;;;;;;5050793;28;20406;-75
2024/01/24 12:44:46;;;;;;;29.80;21.53;;;;;;;;;;5050600;28;20478;-75
2024/01/24 12:47:13;;;;;;;23.20;20.90;;;;;;;;;;5050357;28;20504;-76
2024/01/24 12:49:40;;;;;;;25.43;22.07;;;;;;;;;;5050419;28;20486;-76
2024/01/24 12:52:07;;;;;;;24.87;22.30;;;;;;;;;;5050799;28;20512;-76
2024/01/24 12:54:35;;;;;;;22.93;20.70;;;;;;;;;;5049600;28;20780;-76
2024/01/24 12:57:02;;;;;;;23.60;21.20;;;;;;;;;;5050090;28;20442;-75
2024/01/24 12:59:29;;;;;;;23.07;20.97;;;;;;;;;;5050588;28;20475;-74
2024/01/24 13:01:57;;;;;;;22.60;20.30;;;;;;;;;;5060662;28;20489;-76
2024/01/24 13:04:24;;;;;;;22.57;20.80;;;;;;;;;;5076161;28;20460;-87
2024/01/24 13:06:52;;;;;;;24.50;21.37;;;;;;;;;;5077413;28;20420;-86
2024/01/24 13:09:19;;;;;;;22.47;20.30;;;;;;;;;;5069066;28;20470;-88
2024/01/24 13:11:47;;;;;;;22.23;20.30;;;;;;;;;;5078148;28;20408;-86
2024/01/24 13:14:14;;;;;;;24.60;21.57;;;;;;;;;;5078302;28;20457;-87
2024/01/24 13:16:41;;;;;;;25.80;23.10;;;;;;;;;;5077434;28;20471;-87
2024/01/24 13:19:08;;;;;;;22.57;20.57;;;;;;;;;;5076994;28;20488;-88
2024/01/24 13:21:36;;;;;;;22.53;20.37;;;;;;;;;;5077839;28;20462;-87
2024/01/24 13:24:04;;;;;;;28.20;23.10;;;;;;;;;;5076859;28;20636;-87
2024/01/24 13:26:31;;;;;;;24.20;21.83;;;;;;;;;;5076938;28;20477;-88
2024/01/24 13:29:00;;;;;;;22.50;20.70;;;;;;;;;;5077200;28;20477;-87
2024/01/24 13:31:26;;;;;;;22.90;20.57;;;;;;;;;;5076404;28;20497;-87
2024/01/24 13:33:54;;;;;;;23.60;21.20;;;;;;;;;;5077928;28;20748;-88
2024/01/24 13:36:22;;;;;;;27.37;22.00;;;;;;;;;;5068008;28;20466;-88
2024/01/24 13:38:48;;;;;;;23.30;21.20;;;;;;;;;;5056260;28;20908;-88
2024/01/24 13:41:16;;;;;;;23.97;21.70;;;;;;;;;;5056097;28;20481;-89
2024/01/24 13:43:43;;;;;;;24.93;21.00;;;;;;;;;;5074145;28;20487;-89
2024/01/24 13:46:11;;;;;;;24.33;21.73;;;;;;;;;;5063890;28;20454;-88
2024/01/24 13:48:38;;;;;;;23.93;21.50;;;;;;;;;;5056990;28;21011;-88
2024/01/24 13:51:05;;;;;;;24.37;22.20;;;;;;;;;;5057039;28;20477;-87
2024/01/24 13:53:33;;;;;;;22.63;20.60;;;;;;;;;;5056120;28;20437;-88
2024/01/24 13:56:00;;;;;;;21.27;19.67;;;;;;;;;;5059426;28;20765;-88
2024/01/24 13:58:27;;;;;;;23.83;21.33;;;;;;;;;;5059314;28;20457;-87
2024/01/24 14:00:54;;;;;;;25.63;22.60;;;;;;;;;;5067526;28;20985;-88
2024/01/24 14:03:22;;;;;;;23.00;21.20;;;;;;;;;;5067683;28;20436;-87
2024/01/24 14:05:49;;;;;;;23.20;21.17;;;;;;;;;;5072746;28;21256;-87
2024/01/24 14:08:16;;;;;;;34.80;22.23;;;;;;;;;;5057960;28;20509;-88
2024/01/24 14:10:44;;;;;;;28.23;21.00;;;;;;;;;;5064889;28;20474;-88
2024/01/24 14:13:11;;;;;;;25.90;23.20;;;;;;;;;;5079440;28;20385;-88
2024/01/24 14:15:38;;;;;;;22.57;20.80;;;;;;;;;;5078985;28;20430;-88
2024/01/24 14:18:07;;;;;;;28.07;22.30;;;;;;;;;;5061517;28;20515;-87
2024/01/24 14:20:35;;;;;;;24.80;20.47;;;;;;;;;;5072480;28;20556;-88
2024/01/24 14:23:03;;;;;;;26.47;21.60;;;;;;;;;;5062019;28;20913;-88
2024/01/24 14:25:30;;;;;;;24.87;22.23;;;;;;;;;;5063728;28;20433;-87
2024/01/24 14:27:57;;;;;;;24.37;22.40;;;;;;;;;;5080526;28;20515;-88